createdAt,value
2018-08-25T00:00:09.020Z,47.34
2018-08-25T00:00:49.596Z,47.92
2018-08-25T00:01:30.176Z,47.34
2018-08-25T00:02:10.748Z,47.15
2018-08-25T00:02:51.291Z,47.92
2018-08-25T00:03:31.869Z,47.24
2018-08-25T00:04:12.433Z,47.24
2018-08-25T00:04:52.995Z,47.15
2018-08-25T00:05:33.575Z,47.15
2018-08-25T00:06:14.122Z,47.15
2018-08-25T00:06:54.689Z,46.95
2018-08-25T00:07:35.253Z,47.34
2018-08-25T00:08:15.825Z,47.24
2018-08-25T00:08:56.375Z,47.24
2018-08-25T00:09:36.944Z,47.92
2018-08-25T00:10:17.516Z,47.92
2018-08-25T00:10:58.073Z,47.53
2018-08-25T00:11:38.634Z,47.34
2018-08-25T00:12:19.191Z,47.72
2018-08-25T00:12:59.787Z,47.72
2018-08-25T00:13:40.356Z,47.82
2018-08-25T00:14:20.924Z,48.21
2018-08-25T00:15:01.475Z,47.53
2018-08-25T00:15:42.052Z,47.72
2018-08-25T00:16:22.613Z,47.53
2018-08-25T00:17:03.177Z,47.63
2018-08-25T00:17:43.742Z,47.63
2018-08-25T00:18:24.314Z,47.72
2018-08-25T00:19:05.023Z,48.3
2018-08-25T00:19:45.597Z,47.72
2018-08-25T00:20:26.160Z,47.63
2018-08-25T00:21:06.713Z,47.61
2018-08-25T00:21:47.367Z,47.72
2018-08-25T00:22:27.862Z,47.7
2018-08-25T00:23:08.429Z,47.72
2018-08-25T00:23:48.997Z,47.92
2018-08-25T00:24:29.547Z,47.53
2018-08-25T00:25:10.122Z,48.08
2018-08-25T00:25:50.684Z,48.11
2018-08-25T00:26:31.257Z,48.08
2018-08-25T00:27:11.835Z,48.69
2018-08-25T00:27:52.403Z,48.38
2018-08-25T00:28:32.958Z,48.49
2018-08-25T00:29:13.537Z,48.57
2018-08-25T00:29:54.104Z,48.59
2018-08-25T00:30:34.668Z,48.3
2018-08-25T00:31:15.239Z,48.28
2018-08-25T00:31:55.803Z,48.28
2018-08-25T00:32:36.362Z,48.38
2018-08-25T00:33:16.924Z,48.38
2018-08-25T00:33:57.483Z,48.28
2018-08-25T00:34:38.074Z,48.49
2018-08-25T00:35:18.632Z,48.38
2018-08-25T00:35:59.196Z,48.47
2018-08-25T00:36:39.787Z,48.95
2018-08-25T00:37:20.344Z,48.28
2018-08-25T00:38:00.927Z,49.15
2018-08-25T00:38:41.488Z,48.57
2018-08-25T00:39:22.040Z,49.05
2018-08-25T00:40:02.608Z,48.38
2018-08-25T00:40:43.155Z,48.08
2018-08-25T00:41:23.709Z,48.76
2018-08-25T00:42:04.258Z,49.05
2018-08-25T00:42:44.827Z,48.57
2018-08-25T00:43:25.404Z,48.85
2018-08-25T00:44:05.969Z,48.38
2018-08-25T00:44:46.542Z,48.47
2018-08-25T00:45:27.107Z,48.66
2018-08-25T00:46:07.659Z,49.15
2018-08-25T00:46:48.213Z,49.24
2018-08-25T00:47:28.756Z,49.15
2018-08-25T00:48:09.316Z,48.66
2018-08-25T00:48:49.902Z,48.95
2018-08-25T00:49:30.475Z,49.05
2018-08-25T00:50:11.043Z,48.85
2018-08-25T00:50:51.613Z,49.05
2018-08-25T00:51:32.171Z,49.91
2018-08-25T00:52:12.734Z,49.33
2018-08-25T00:52:53.314Z,49.33
2018-08-25T00:53:33.878Z,49.63
2018-08-25T00:54:14.434Z,49.53
2018-08-25T00:54:54.995Z,49.63
2018-08-25T00:55:35.581Z,49.53
2018-08-25T00:56:16.128Z,49.72
2018-08-25T00:56:56.701Z,49.91
2018-08-25T00:57:37.270Z,49.91
2018-08-25T00:58:17.830Z,49.53
2018-08-25T00:58:58.401Z,49.53
2018-08-25T00:59:38.963Z,49.43
2018-08-25T01:00:19.543Z,49.72
2018-08-25T01:01:00.108Z,50.3
2018-08-25T01:01:40.677Z,50.3
2018-08-25T01:02:21.238Z,50.01
2018-08-25T01:03:01.803Z,49.91
2018-08-25T01:03:42.363Z,50.3
2018-08-25T01:04:22.929Z,49.72
2018-08-25T01:05:03.489Z,50.49
2018-08-25T01:05:44.053Z,50.3
2018-08-25T01:06:24.627Z,49.82
2018-08-25T01:07:05.191Z,49.82
2018-08-25T01:07:45.742Z,50.01
2018-08-25T01:08:26.313Z,50.01
2018-08-25T01:09:06.880Z,50.4
2018-08-25T01:09:47.441Z,50.3
2018-08-25T01:10:28.011Z,50.1
2018-08-25T01:11:08.583Z,50.3
2018-08-25T01:11:49.158Z,50.2
2018-08-25T01:12:29.742Z,50.68
2018-08-25T01:13:10.297Z,50.3
2018-08-25T01:13:50.850Z,50.3
2018-08-25T01:14:31.403Z,50.3
2018-08-25T01:15:11.961Z,50.4
2018-08-25T01:15:52.534Z,50.4
2018-08-25T01:16:33.127Z,50.49
2018-08-25T01:17:13.667Z,50.49
2018-08-25T01:17:54.240Z,50.68
2018-08-25T01:18:34.834Z,51.26
2018-08-25T01:19:15.395Z,51.17
2018-08-25T01:19:55.963Z,50.87
2018-08-25T01:20:36.519Z,51.07
2018-08-25T01:21:17.074Z,51.64
2018-08-25T01:21:57.622Z,51.45
2018-08-25T01:22:38.203Z,51.55
2018-08-25T01:23:18.758Z,51.45
2018-08-25T01:23:59.319Z,51.55
2018-08-25T01:24:39.879Z,51.45
2018-08-25T01:25:20.440Z,51.64
2018-08-25T01:26:01.004Z,51.64
2018-08-25T01:26:41.582Z,51.74
2018-08-25T01:27:22.152Z,52.12
2018-08-25T01:28:02.721Z,52.22
2018-08-25T01:28:43.277Z,52.12
2018-08-25T01:29:23.841Z,52.51
2018-08-25T01:30:04.402Z,52.51
2018-08-25T01:30:44.987Z,52.51
2018-08-25T01:31:25.568Z,52.61
2018-08-25T01:32:06.127Z,52.61
2018-08-25T01:32:46.712Z,52.7
2018-08-25T01:33:27.249Z,53.09
2018-08-25T01:34:07.822Z,53.28
2018-08-25T01:34:48.392Z,52.89
2018-08-25T01:35:28.965Z,53.09
2018-08-25T01:36:09.526Z,53.28
2018-08-25T01:36:50.082Z,53.57
2018-08-25T01:37:30.643Z,53.76
2018-08-25T01:38:11.324Z,53.86
2018-08-25T01:38:51.889Z,53.66
2018-08-25T01:39:32.456Z,53.96
2018-08-25T01:40:13.029Z,53.47
2018-08-25T01:40:53.588Z,53.96
2018-08-25T01:41:34.176Z,54.24
2018-08-25T01:42:14.730Z,53.76
2018-08-25T01:42:55.304Z,53.57
2018-08-25T01:43:35.864Z,53.86
2018-08-25T01:44:16.425Z,54.24
2018-08-25T01:44:56.990Z,54.34
2018-08-25T01:45:37.590Z,54.43
2018-08-25T01:46:18.148Z,54.53
2018-08-25T01:46:58.729Z,54.41
2018-08-25T01:47:39.323Z,54.24
2018-08-25T01:48:19.954Z,54.31
2018-08-25T01:49:00.483Z,54.53
2018-08-25T01:49:41.044Z,54.34
2018-08-25T01:50:21.631Z,54.79
2018-08-25T01:51:02.194Z,54.89
2018-08-25T01:51:42.758Z,54.82
2018-08-25T01:52:23.325Z,54.6
2018-08-25T01:53:03.880Z,54.6
2018-08-25T01:53:44.447Z,54.89
2018-08-25T01:54:25.040Z,54.79
2018-08-25T01:55:05.630Z,55.08
2018-08-25T01:55:46.196Z,55.27
2018-08-25T01:56:26.756Z,55.08
2018-08-25T01:57:07.340Z,55.37
2018-08-25T01:57:47.910Z,55.37
2018-08-25T01:58:28.545Z,55.85
2018-08-25T01:59:09.111Z,55.56
2018-08-25T01:59:49.681Z,55.27
2018-08-25T02:00:30.232Z,55.18
2018-08-25T02:01:10.800Z,55.46
2018-08-25T02:01:51.397Z,55.37
2018-08-25T02:02:31.954Z,55.66
2018-08-25T02:03:12.558Z,55.18
2018-08-25T02:03:53.117Z,55.37
2018-08-25T02:04:33.691Z,55.27
2018-08-25T02:05:14.267Z,55.76
2018-08-25T02:05:54.881Z,55.37
2018-08-25T02:06:35.457Z,55.37
2018-08-25T02:07:16.007Z,55.94
2018-08-25T02:07:56.578Z,55.85
2018-08-25T02:08:37.220Z,55.27
2018-08-25T02:09:17.802Z,55.18
2018-08-25T02:09:58.324Z,55.66
2018-08-25T02:10:38.888Z,55.76
2018-08-25T02:11:19.467Z,55.94
2018-08-25T02:12:00.019Z,56.14
2018-08-25T02:12:40.618Z,55.85
2018-08-25T02:13:21.188Z,56.14
2018-08-25T02:14:01.756Z,56.33
2018-08-25T02:14:42.309Z,56.43
2018-08-25T02:15:22.883Z,56.14
2018-08-25T02:16:03.438Z,56.33
2018-08-25T02:16:44.000Z,55.94
2018-08-25T02:17:24.569Z,56.14
2018-08-25T02:18:05.140Z,56.23
2018-08-25T02:18:45.735Z,56.23
2018-08-25T02:19:26.289Z,56.23
2018-08-25T02:20:06.833Z,56.23
2018-08-25T02:20:47.407Z,56.04
2018-08-25T02:21:27.978Z,56.04
2018-08-25T02:22:08.550Z,56.04
2018-08-25T02:22:49.121Z,55.85
2018-08-25T02:23:29.729Z,56.33
2018-08-25T02:24:10.308Z,56.14
2018-08-25T02:24:50.861Z,56.04
2018-08-25T02:25:31.444Z,56.14
2018-08-25T02:26:11.999Z,56.52
2018-08-25T02:26:52.598Z,56.81
2018-08-25T02:27:33.199Z,56.33
2018-08-25T02:28:13.801Z,56.62
2018-08-25T02:28:54.311Z,56.43
2018-08-25T02:29:34.864Z,56.33
2018-08-25T02:30:15.421Z,56.33
2018-08-25T02:30:56.010Z,56.33
2018-08-25T02:31:36.582Z,56.62
2018-08-25T02:32:17.141Z,56.81
2018-08-25T02:32:57.717Z,56.62
2018-08-25T02:33:38.276Z,56.81
2018-08-25T02:34:18.847Z,56.52
2018-08-25T02:34:59.610Z,56.91
2018-08-25T02:35:40.188Z,57
2018-08-25T02:36:20.746Z,57.1
2018-08-25T02:37:01.318Z,57.1
2018-08-25T02:37:41.874Z,57.2
2018-08-25T02:38:22.423Z,57.2
2018-08-25T02:39:03.000Z,57.1
2018-08-25T02:39:43.561Z,57.1
2018-08-25T02:40:24.135Z,57.39
2018-08-25T02:41:04.693Z,57.68
2018-08-25T02:41:45.249Z,57
2018-08-25T02:42:25.835Z,57.68
2018-08-25T02:43:06.405Z,57.39
2018-08-25T02:43:46.979Z,57.1
2018-08-25T02:44:27.536Z,57.39
2018-08-25T02:45:08.095Z,57.48
2018-08-25T02:45:48.654Z,57
2018-08-25T02:46:29.255Z,57.1
2018-08-25T02:47:09.842Z,57.2
2018-08-25T02:47:50.472Z,56.91
2018-08-25T02:48:31.041Z,56.71
2018-08-25T02:49:11.585Z,57
2018-08-25T02:49:52.149Z,57
2018-08-25T02:50:32.747Z,56.81
2018-08-25T02:51:13.303Z,56.81
2018-08-25T02:51:53.860Z,56.33
2018-08-25T02:52:34.428Z,56.23
2018-08-25T02:53:14.994Z,57
2018-08-25T02:53:55.541Z,57
2018-08-25T02:54:36.100Z,57
2018-08-25T02:55:16.669Z,57.39
2018-08-25T02:55:57.231Z,57.2
2018-08-25T02:56:37.794Z,57.1
2018-08-25T02:57:18.350Z,57.1
2018-08-25T02:57:58.901Z,57.2
2018-08-25T02:58:39.456Z,57.1
2018-08-25T02:59:20.023Z,57.1
2018-08-25T03:00:00.578Z,57.1
2018-08-25T03:00:41.141Z,57
2018-08-25T03:01:21.759Z,57.39
2018-08-25T03:02:02.310Z,57
2018-08-25T03:02:42.882Z,57.2
2018-08-25T03:03:23.448Z,57.29
2018-08-25T03:04:04.009Z,57.39
2018-08-25T03:04:44.576Z,56.81
2018-08-25T03:05:25.150Z,56.43
2018-08-25T03:06:05.707Z,57
2018-08-25T03:06:46.266Z,57.1
2018-08-25T03:07:26.843Z,57.1
2018-08-25T03:08:07.420Z,57
2018-08-25T03:08:47.998Z,57
2018-08-25T03:09:28.556Z,57
2018-08-25T03:10:09.132Z,57
2018-08-25T03:10:49.697Z,57.1
2018-08-25T03:11:30.253Z,56.81
2018-08-25T03:12:10.870Z,56.52
2018-08-25T03:12:51.474Z,56.71
2018-08-25T03:13:32.043Z,57
2018-08-25T03:14:12.608Z,57.2
2018-08-25T03:14:53.187Z,57
2018-08-25T03:15:33.742Z,57.48
2018-08-25T03:16:14.335Z,57.29
2018-08-25T03:16:54.934Z,57.2
2018-08-25T03:17:35.509Z,57.29
2018-08-25T03:18:16.064Z,57
2018-08-25T03:18:56.637Z,56.91
2018-08-25T03:19:37.200Z,56.62
2018-08-25T03:20:17.778Z,56.62
2018-08-25T03:20:58.346Z,56.62
2018-08-25T03:21:38.917Z,56.52
2018-08-25T03:22:19.470Z,56.62
2018-08-25T03:23:00.025Z,56.33
2018-08-25T03:23:40.612Z,56.62
2018-08-25T03:24:21.175Z,56.62
2018-08-25T03:25:01.743Z,56.23
2018-08-25T03:25:42.305Z,56.81
2018-08-25T03:26:22.869Z,56.62
2018-08-25T03:27:03.447Z,56.71
2018-08-25T03:27:44.015Z,57.1
2018-08-25T03:28:24.591Z,57.1
2018-08-25T03:29:05.172Z,57.1
2018-08-25T03:29:45.755Z,57.58
2018-08-25T03:30:26.321Z,57.1
2018-08-25T03:31:06.904Z,57.39
2018-08-25T03:31:47.471Z,57.1
2018-08-25T03:32:28.040Z,57.2
2018-08-25T03:33:08.683Z,57.29
2018-08-25T03:33:49.181Z,57.1
2018-08-25T03:34:29.726Z,57.1
2018-08-25T03:35:10.302Z,57.29
2018-08-25T03:35:50.866Z,57.2
2018-08-25T03:36:31.447Z,57.48
2018-08-25T03:37:12.008Z,57.29
2018-08-25T03:37:52.588Z,57.58
2018-08-25T03:38:33.149Z,57.1
2018-08-25T03:39:13.723Z,57.48
2018-08-25T03:39:54.296Z,57.2
2018-08-25T03:40:34.901Z,57.39
2018-08-25T03:41:15.470Z,57.48
2018-08-25T03:41:56.022Z,57
2018-08-25T03:42:36.582Z,56.52
2018-08-25T03:43:17.139Z,56.71
2018-08-25T03:43:57.713Z,56.71
2018-08-25T03:44:38.278Z,56.81
2018-08-25T03:45:18.825Z,56.81
2018-08-25T03:45:59.397Z,56.33
2018-08-25T03:46:39.965Z,56.33
2018-08-25T03:47:20.516Z,56.62
2018-08-25T03:48:01.101Z,56.62
2018-08-25T03:48:41.680Z,56.81
2018-08-25T03:49:22.256Z,56.62
2018-08-25T03:50:02.847Z,56.52
2018-08-25T03:50:43.392Z,56.71
2018-08-25T03:51:23.973Z,57
2018-08-25T03:52:04.541Z,57.39
2018-08-25T03:52:45.113Z,57.29
2018-08-25T03:53:25.682Z,57.48
2018-08-25T03:54:06.247Z,57.29
2018-08-25T03:54:46.793Z,57.1
2018-08-25T03:55:27.530Z,57.1
2018-08-25T03:56:07.942Z,56.91
2018-08-25T03:56:48.517Z,57
2018-08-25T03:57:29.096Z,57.29
2018-08-25T03:58:09.689Z,57.48
2018-08-25T03:58:50.250Z,57.68
2018-08-25T03:59:30.815Z,57.45
2018-08-25T04:00:11.396Z,57.39
2018-08-25T04:00:51.977Z,57.17
2018-08-25T04:01:32.604Z,56.98
2018-08-25T04:02:13.108Z,57.36
2018-08-25T04:02:53.673Z,57.36
2018-08-25T04:03:34.229Z,57.36
2018-08-25T04:04:14.787Z,57.26
2018-08-25T04:04:55.340Z,57.07
2018-08-25T04:05:35.908Z,57.45
2018-08-25T04:06:16.528Z,57.07
2018-08-25T04:06:57.108Z,57.07
2018-08-25T04:07:37.680Z,57.1
2018-08-25T04:08:18.239Z,56.33
2018-08-25T04:08:58.815Z,56.43
2018-08-25T04:09:39.387Z,56.71
2018-08-25T04:10:19.965Z,56.68
2018-08-25T04:11:00.530Z,56.49
2018-08-25T04:11:41.085Z,56.98
2018-08-25T04:12:21.640Z,57.17
2018-08-25T04:13:02.242Z,57.17
2018-08-25T04:13:42.846Z,57.26
2018-08-25T04:14:23.414Z,57.36
2018-08-25T04:15:03.981Z,56.98
2018-08-25T04:15:44.529Z,57.17
2018-08-25T04:16:25.094Z,57.17
2018-08-25T04:17:05.661Z,57.17
2018-08-25T04:17:46.237Z,57.07
2018-08-25T04:18:26.781Z,56.88
2018-08-25T04:19:07.343Z,57.36
2018-08-25T04:19:47.913Z,57.36
2018-08-25T04:20:28.480Z,56.98
2018-08-25T04:21:09.037Z,57.07
2018-08-25T04:21:49.609Z,56.68
2018-08-25T04:22:30.171Z,56.78
2018-08-25T04:23:10.763Z,57.07
2018-08-25T04:23:51.333Z,57.45
2018-08-25T04:24:31.916Z,57.36
2018-08-25T04:25:12.486Z,57.36
2018-08-25T04:25:53.235Z,57.45
2018-08-25T04:26:33.877Z,57.84
2018-08-25T04:27:14.460Z,57.17
2018-08-25T04:27:55.037Z,57.45
2018-08-25T04:28:35.605Z,57.55
2018-08-25T04:29:16.161Z,57.45
2018-08-25T04:29:56.942Z,57.45
2018-08-25T04:30:37.459Z,57.36
2018-08-25T04:31:18.061Z,57.36
2018-08-25T04:31:58.599Z,57.45
2018-08-25T04:32:39.173Z,57.55
2018-08-25T04:33:19.785Z,57.93
2018-08-25T04:34:00.308Z,57.84
2018-08-25T04:34:40.861Z,57.84
2018-08-25T04:35:21.428Z,57.75
2018-08-25T04:36:02.000Z,58.22
2018-08-25T04:36:42.589Z,57.93
2018-08-25T04:37:23.143Z,58.32
2018-08-25T04:38:03.696Z,58.8
2018-08-25T04:38:44.334Z,58.61
2018-08-25T04:39:24.915Z,58.61
2018-08-25T04:40:05.486Z,58.32
2018-08-25T04:40:46.118Z,58.73
2018-08-25T04:41:26.779Z,58.73
2018-08-25T04:42:07.256Z,58.54
2018-08-25T04:42:47.843Z,58.35
2018-08-25T04:43:28.399Z,58.54
2018-08-25T04:44:08.986Z,58.73
2018-08-25T04:44:49.560Z,58.64
2018-08-25T04:45:30.115Z,58.45
2018-08-25T04:46:10.688Z,58.54
2018-08-25T04:46:51.242Z,58.35
2018-08-25T04:47:31.789Z,58.45
2018-08-25T04:48:12.347Z,58.54
2018-08-25T04:48:52.939Z,58.92
2018-08-25T04:49:33.505Z,58.25
2018-08-25T04:50:14.064Z,58.45
2018-08-25T04:50:54.630Z,58.54
2018-08-25T04:51:35.219Z,58.45
2018-08-25T04:52:15.804Z,58.25
2018-08-25T04:52:56.378Z,58.45
2018-08-25T04:53:36.940Z,58.64
2018-08-25T04:54:17.517Z,58.83
2018-08-25T04:54:58.089Z,58.83
2018-08-25T04:55:38.650Z,58.92
2018-08-25T04:56:19.219Z,58.64
2018-08-25T04:56:59.797Z,59.22
2018-08-25T04:57:40.359Z,59.12
2018-08-25T04:58:20.916Z,59.02
2018-08-25T04:59:01.473Z,59.02
2018-08-25T04:59:42.038Z,59.31
2018-08-25T05:00:22.606Z,59.41
2018-08-25T05:01:03.168Z,59.41
2018-08-25T05:01:43.748Z,59.69
2018-08-25T05:02:24.300Z,59.41
2018-08-25T05:03:04.904Z,60.08
2018-08-25T05:03:45.498Z,59.79
2018-08-25T05:04:26.053Z,60.46
2018-08-25T05:05:06.649Z,59.89
2018-08-25T05:05:47.204Z,60.17
2018-08-25T05:06:27.771Z,60.27
2018-08-25T05:07:08.335Z,60.66
2018-08-25T05:07:48.993Z,60.37
2018-08-25T05:08:29.460Z,60.63
2018-08-25T05:09:10.009Z,60.85
2018-08-25T05:09:50.574Z,60.75
2018-08-25T05:10:31.142Z,60.75
2018-08-25T05:11:11.708Z,60.75
2018-08-25T05:11:52.273Z,60.75
2018-08-25T05:12:32.835Z,60.94
2018-08-25T05:13:13.434Z,60.94
2018-08-25T05:13:53.992Z,61.04
2018-08-25T05:14:34.550Z,61.04
2018-08-25T05:15:15.109Z,60.56
2018-08-25T05:15:55.707Z,60.85
2018-08-25T05:16:36.275Z,61.14
2018-08-25T05:17:16.841Z,60.37
2018-08-25T05:17:57.401Z,60.66
2018-08-25T05:18:37.958Z,60.94
2018-08-25T05:19:18.546Z,61.04
2018-08-25T05:19:59.109Z,60.94
2018-08-25T05:20:39.677Z,60.85
2018-08-25T05:21:20.236Z,60.85
2018-08-25T05:22:00.868Z,61.04
2018-08-25T05:22:41.378Z,61.33
2018-08-25T05:23:21.949Z,61.33
2018-08-25T05:24:02.523Z,61.43
2018-08-25T05:24:43.101Z,61.43
2018-08-25T05:25:23.677Z,61.33
2018-08-25T05:26:04.254Z,61.43
2018-08-25T05:26:44.822Z,61.23
2018-08-25T05:27:25.379Z,61.43
2018-08-25T05:28:05.970Z,61.81
2018-08-25T05:28:46.520Z,62.1
2018-08-25T05:29:27.083Z,62.1
2018-08-25T05:30:07.649Z,62.1
2018-08-25T05:30:48.198Z,62.1
2018-08-25T05:31:28.784Z,61.81
2018-08-25T05:32:09.341Z,62
2018-08-25T05:32:49.906Z,61.81
2018-08-25T05:33:30.483Z,62
2018-08-25T05:34:11.076Z,61.55
2018-08-25T05:34:51.619Z,61.71
2018-08-25T05:35:32.174Z,61.55
2018-08-25T05:36:12.739Z,61.16
2018-08-25T05:36:53.302Z,61.55
2018-08-25T05:37:33.873Z,61.26
2018-08-25T05:38:14.446Z,61.46
2018-08-25T05:38:55.009Z,61.07
2018-08-25T05:39:35.581Z,61.16
2018-08-25T05:40:16.131Z,61.36
2018-08-25T05:40:56.702Z,60.78
2018-08-25T05:41:37.265Z,60.78
2018-08-25T05:42:17.854Z,60.88
2018-08-25T05:42:58.421Z,61.07
2018-08-25T05:43:39.123Z,61.26
2018-08-25T05:44:19.851Z,61.16
2018-08-25T05:45:00.254Z,61.07
2018-08-25T05:45:40.824Z,61.16
2018-08-25T05:46:21.403Z,61.07
2018-08-25T05:47:01.972Z,61.07
2018-08-25T05:47:42.538Z,61.55
2018-08-25T05:48:23.108Z,61.55
2018-08-25T05:49:03.687Z,61.46
2018-08-25T05:49:44.283Z,61.36
2018-08-25T05:50:24.941Z,61.26
2018-08-25T05:51:05.440Z,61.55
2018-08-25T05:51:46.036Z,61.36
2018-08-25T05:52:26.598Z,61.26
2018-08-25T05:53:07.204Z,61.55
2018-08-25T05:53:47.758Z,61.74
2018-08-25T05:54:28.320Z,61.26
2018-08-25T05:55:08.863Z,61.55
2018-08-25T05:55:49.739Z,61.46
2018-08-25T05:56:31.995Z,61.46
2018-08-25T05:57:14.224Z,61.36
2018-08-25T05:57:56.380Z,61.36
2018-08-25T05:58:37.801Z,61.55
2018-08-25T05:59:21.835Z,61.36
2018-08-25T06:00:04.083Z,61.26
2018-08-25T06:00:48.359Z,61.36
2018-08-25T06:01:30.629Z,61.46
2018-08-25T06:02:12.637Z,61.36
2018-08-25T06:02:56.865Z,61.26
2018-08-25T06:03:38.613Z,61.46
2018-08-25T06:04:21.428Z,61.77
2018-08-25T06:05:03.355Z,61.55
2018-08-25T06:05:44.816Z,61.94
2018-08-25T06:06:26.922Z,61.97
2018-08-25T06:07:08.880Z,61.84
2018-08-25T06:07:50.372Z,62.03
2018-08-25T06:08:32.361Z,61.87
2018-08-25T06:09:13.728Z,61.74
2018-08-25T06:09:55.232Z,62.03
2018-08-25T06:10:37.134Z,62.06
2018-08-25T06:11:19.894Z,61.97
2018-08-25T06:12:03.886Z,61.77
2018-08-25T06:12:45.900Z,61.87
2018-08-25T06:13:28.148Z,61.49
2018-08-25T06:14:10.379Z,61.87
2018-08-25T06:14:52.605Z,61.97
2018-08-25T06:15:34.946Z,61.97
2018-08-25T06:16:17.910Z,62.16
2018-08-25T06:16:59.901Z,62.35
2018-08-25T06:17:41.354Z,62.06
2018-08-25T06:18:22.734Z,61.97
2018-08-25T06:19:07.896Z,61.58
2018-08-25T06:19:51.923Z,61.87
2018-08-25T06:20:33.344Z,61.39
2018-08-25T06:21:15.405Z,61.39
2018-08-25T06:21:58.401Z,61.49
2018-08-25T06:22:44.864Z,61.49
2018-08-25T06:23:27.145Z,61.49
2018-08-25T06:24:10.353Z,61.39
2018-08-25T06:24:53.373Z,61.49
2018-08-25T06:25:34.569Z,61.39
2018-08-25T06:26:15.877Z,61.39
2018-08-25T06:26:57.888Z,61.58
2018-08-25T06:27:38.455Z,61.68
2018-08-25T06:28:19.035Z,61.49
2018-08-25T06:28:59.592Z,61.39
2018-08-25T06:29:40.190Z,61.39
2018-08-25T06:30:20.728Z,61.39
2018-08-25T06:31:01.282Z,61.39
2018-08-25T06:31:41.830Z,61.49
2018-08-25T06:32:22.410Z,61.49
2018-08-25T06:33:02.977Z,61.58
2018-08-25T06:33:43.546Z,61.97
2018-08-25T06:34:24.106Z,61.68
2018-08-25T06:35:04.733Z,62.16
2018-08-25T06:35:45.347Z,62.16
2018-08-25T06:36:25.934Z,62.06
2018-08-25T06:37:06.473Z,61.97
2018-08-25T06:37:47.042Z,61.87
2018-08-25T06:38:27.609Z,61.97
2018-08-25T06:39:08.177Z,61.97
2018-08-25T06:39:48.785Z,62.35
2018-08-25T06:40:29.356Z,61.97
2018-08-25T06:41:09.950Z,61.87
2018-08-25T06:41:50.521Z,61.87
2018-08-25T06:42:31.113Z,61.77
2018-08-25T06:43:11.700Z,61.49
2018-08-25T06:43:52.254Z,61.58
2018-08-25T06:44:32.832Z,61.39
2018-08-25T06:45:13.406Z,61.39
2018-08-25T06:45:53.969Z,61.68
2018-08-25T06:46:34.550Z,61.39
2018-08-25T06:47:15.144Z,61.52
2018-08-25T06:47:55.711Z,61.42
2018-08-25T06:48:36.273Z,61.04
2018-08-25T06:49:16.869Z,60.55
2018-08-25T06:49:57.463Z,60.49
2018-08-25T06:50:38.006Z,60
2018-08-25T06:51:18.576Z,59.91
2018-08-25T06:51:59.172Z,59.81
2018-08-25T06:52:39.755Z,60.13
2018-08-25T06:53:20.447Z,59.94
2018-08-25T06:54:00.961Z,59.84
2018-08-25T06:54:41.525Z,59.07
2018-08-25T06:55:22.096Z,58.52
2018-08-25T06:56:02.688Z,58.72
2018-08-25T06:56:43.265Z,58.52
2018-08-25T06:57:23.829Z,58.14
2018-08-25T06:58:04.417Z,57.56
2018-08-25T06:58:45.436Z,57.94
2018-08-25T06:59:25.983Z,57.27
2018-08-25T07:00:06.521Z,57.17
2018-08-25T07:00:47.134Z,57.87
2018-08-25T07:01:27.695Z,57.49
2018-08-25T07:02:08.283Z,57.29
2018-08-25T07:02:48.852Z,57.39
2018-08-25T07:03:29.541Z,57.2
2018-08-25T07:04:10.203Z,57.2
2018-08-25T07:04:51.046Z,56.81
2018-08-25T07:05:31.805Z,56.62
2018-08-25T07:06:12.384Z,56.81
2018-08-25T07:06:52.955Z,56.72
2018-08-25T07:07:33.668Z,56.79
2018-08-25T07:08:14.235Z,56.98
2018-08-25T07:08:54.796Z,56.59
2018-08-25T07:09:35.376Z,57.17
2018-08-25T07:10:16.005Z,57.37
2018-08-25T07:10:56.740Z,56.98
2018-08-25T07:11:37.303Z,56.49
2018-08-25T07:12:17.917Z,57.07
2018-08-25T07:12:58.606Z,57.65
2018-08-25T07:13:39.080Z,57.72
2018-08-25T07:14:19.636Z,58.4
2018-08-25T07:15:00.205Z,58.4
2018-08-25T07:15:40.795Z,58.59
2018-08-25T07:16:21.359Z,58.49
2018-08-25T07:17:01.989Z,59.17
2018-08-25T07:17:42.556Z,59.07
2018-08-25T07:18:23.110Z,59.07
2018-08-25T07:19:03.875Z,58.97
2018-08-25T07:19:44.378Z,59.07
2018-08-25T07:20:24.981Z,58.88
2018-08-25T07:21:05.833Z,58.69
2018-08-25T07:21:46.441Z,58.97
2018-08-25T07:22:27.032Z,59.14
2018-08-25T07:23:07.602Z,59.52
2018-08-25T07:23:48.219Z,59.14
2018-08-25T07:24:28.795Z,59.62
2018-08-25T07:25:09.356Z,59.55
2018-08-25T07:25:50.066Z,59.14
2018-08-25T07:26:30.554Z,59.04
2018-08-25T07:27:11.122Z,59.72
2018-08-25T07:27:51.714Z,59.81
2018-08-25T07:28:32.279Z,59.81
2018-08-25T07:29:12.840Z,59.91
2018-08-25T07:29:53.396Z,60
2018-08-25T07:30:33.961Z,59.65
2018-08-25T07:31:14.541Z,59.14
2018-08-25T07:31:55.185Z,59.14
2018-08-25T07:32:35.740Z,59.07
2018-08-25T07:33:16.321Z,59.23
2018-08-25T07:33:56.923Z,59.14
2018-08-25T07:34:37.508Z,59.14
2018-08-25T07:35:18.065Z,59.14
2018-08-25T07:35:58.623Z,59.72
2018-08-25T07:36:39.204Z,59.33
2018-08-25T07:37:19.765Z,60
2018-08-25T07:38:00.333Z,59.91
2018-08-25T07:38:40.884Z,59.91
2018-08-25T07:39:21.459Z,60.2
2018-08-25T07:40:02.018Z,60.1
2018-08-25T07:40:42.599Z,59.91
2018-08-25T07:41:23.152Z,60.2
2018-08-25T07:42:03.719Z,59.91
2018-08-25T07:42:44.293Z,59.81
2018-08-25T07:43:24.866Z,59.91
2018-08-25T07:44:05.482Z,60
2018-08-25T07:44:46.081Z,60
2018-08-25T07:45:26.774Z,59.91
2018-08-25T07:46:07.347Z,59.91
2018-08-25T07:46:47.935Z,60
2018-08-25T07:47:28.491Z,59.84
2018-08-25T07:48:09.070Z,59.62
2018-08-25T07:48:49.645Z,59.72
2018-08-25T07:49:30.228Z,59.72
2018-08-25T07:50:10.765Z,59.72
2018-08-25T07:50:51.364Z,59.91
2018-08-25T07:51:31.945Z,59.65
2018-08-25T07:52:12.531Z,59.55
2018-08-25T07:52:53.095Z,59.72
2018-08-25T07:53:33.666Z,59.36
2018-08-25T07:54:14.231Z,59.65
2018-08-25T07:54:54.776Z,59.17
2018-08-25T07:55:35.371Z,58.88
2018-08-25T07:56:15.936Z,58.78
2018-08-25T07:56:56.495Z,59.17
2018-08-25T07:57:37.045Z,58.97
2018-08-25T07:58:17.663Z,59.1
2018-08-25T07:58:58.194Z,59.68
2018-08-25T07:59:38.760Z,58.62
2018-08-25T08:00:19.333Z,58.72
2018-08-25T08:00:59.927Z,58.26
2018-08-25T08:01:40.490Z,57.78
2018-08-25T08:02:21.064Z,56.62
2018-08-25T08:03:01.639Z,56.72
2018-08-25T08:03:42.214Z,57.59
2018-08-25T08:04:22.798Z,57.39
2018-08-25T08:05:03.360Z,56.91
2018-08-25T08:05:43.992Z,56.52
2018-08-25T08:06:24.593Z,56.59
2018-08-25T08:07:05.184Z,56.69
2018-08-25T08:07:45.754Z,57.1
2018-08-25T08:08:26.313Z,56.69
2018-08-25T08:09:06.873Z,56.98
2018-08-25T08:09:47.456Z,56.3
2018-08-25T08:10:28.020Z,56.01
2018-08-25T08:11:08.611Z,56.49
2018-08-25T08:11:49.267Z,57.65
2018-08-25T08:12:29.768Z,57.65
2018-08-25T08:13:10.388Z,56.98
2018-08-25T08:13:50.938Z,56.21
2018-08-25T08:14:31.514Z,56.49
2018-08-25T08:15:12.072Z,56.98
2018-08-25T08:15:52.657Z,56.59
2018-08-25T08:16:33.219Z,56.59
2018-08-25T08:17:13.791Z,57.65
2018-08-25T08:17:54.349Z,57.59
2018-08-25T08:18:34.990Z,56.91
2018-08-25T08:19:15.535Z,55.66
2018-08-25T08:19:56.156Z,55.63
2018-08-25T08:20:36.735Z,55.66
2018-08-25T08:21:17.295Z,55.36
2018-08-25T08:21:57.894Z,55.54
2018-08-25T08:22:38.451Z,56.11
2018-08-25T08:23:19.032Z,56.59
2018-08-25T08:23:59.604Z,57.1
2018-08-25T08:24:40.196Z,56.88
2018-08-25T08:25:20.830Z,56.52
2018-08-25T08:26:01.412Z,56.81
2018-08-25T08:26:42.051Z,57.01
2018-08-25T08:27:22.632Z,56.33
2018-08-25T08:28:03.222Z,55.94
2018-08-25T08:28:43.816Z,55.27
2018-08-25T08:29:24.403Z,55.46
2018-08-25T08:30:04.994Z,56.91
2018-08-25T08:30:45.569Z,57.2
2018-08-25T08:31:26.122Z,55.1
2018-08-25T08:32:06.690Z,53.17
2018-08-25T08:32:47.365Z,53.56
2018-08-25T08:33:27.961Z,53.47
2018-08-25T08:34:08.658Z,53.66
2018-08-25T08:34:49.408Z,53.85
2018-08-25T08:35:30.101Z,53.66
2018-08-25T08:36:10.730Z,54.43
2018-08-25T08:36:51.516Z,54.72
2018-08-25T08:37:32.192Z,53.47
2018-08-25T08:38:12.869Z,52.53
2018-08-25T08:38:53.430Z,52.4
2018-08-25T08:39:34.044Z,52.72
2018-08-25T08:40:14.637Z,52.43
2018-08-25T08:40:55.207Z,51.75
2018-08-25T08:41:35.778Z,49.63
2018-08-25T08:42:16.380Z,50.11
2018-08-25T08:42:56.911Z,50.89
2018-08-25T08:43:37.479Z,50.98
2018-08-25T08:44:18.037Z,50.21
2018-08-25T08:44:58.606Z,49.53
2018-08-25T08:45:39.217Z,49.24
2018-08-25T08:46:19.775Z,49.65
2018-08-25T08:47:00.343Z,48.21